Time;durP1;ratioP1;P1;durP2;ratioP2;P2;SDS_P1;SDS_P2;PMS_P1;PMS_P2;Temp;Humidity;BMP_temperature;BMP_pressure;BME280_temperature;BME280_humidity;BME280_pressure;Samples;Min_cycle;Max_cycle;Signal;HPM_P1;HPM_P2
2022/08/24 00:02:22;;;;;;;;;;;24.80;45.50;;;;;;5027403;28;19971;-60
2022/08/24 00:04:49;;;;;;;;;;;24.80;45.50;;;;;;5022797;28;19925;-60
2022/08/24 00:07:16;;;;;;;;;;;24.80;45.50;;;;;;5026589;28;19921;-60
2022/08/24 00:09:43;;;;;;;;;;;24.70;45.40;;;;;;5028874;28;19921;-60
2022/08/24 00:12:12;;;;;;;;;;;24.80;45.60;;;;;;5028690;28;19988;-60
2022/08/24 00:14:39;;;;;;;;;;;24.80;45.90;;;;;;5029810;28;19967;-60
2022/08/24 00:17:06;;;;;;;;;;;24.70;45.50;;;;;;5024871;28;20001;-60
2022/08/24 00:19:32;;;;;;;;;;;24.70;45.50;;;;;;5029342;28;20020;-60
2022/08/24 00:22:00;;;;;;;;;;;24.80;45.60;;;;;;5025232;28;19972;-60
2022/08/24 00:24:26;;;;;;;;;;;24.70;45.50;;;;;;5026478;28;20433;-60
2022/08/24 00:26:53;;;;;;;;;;;24.70;45.50;;;;;;5025672;28;19964;-60
2022/08/24 00:29:21;;;;;;;;;;;24.70;45.50;;;;;;5028216;28;19940;-60
2022/08/24 00:31:48;;;;;;;;;;;24.70;45.60;;;;;;5025805;28;19943;-60
2022/08/24 00:34:16;;;;;;;;;;;24.70;45.60;;;;;;5026613;28;19921;-61
2022/08/24 00:36:43;;;;;;;;;;;24.70;45.60;;;;;;5026014;28;19932;-61
2022/08/24 00:39:10;;;;;;;;;;;24.70;45.60;;;;;;5025569;28;20020;-60
2022/08/24 00:41:39;;;;;;;;;;;24.70;45.60;;;;;;5027884;28;19932;-60
2022/08/24 00:44:06;;;;;;;;;;;24.70;45.60;;;;;;5023928;28;19940;-60
2022/08/24 00:46:37;;;;;;;;;;;24.70;45.60;;;;;;5028120;28;20381;-60
2022/08/24 00:49:04;;;;;;;;;;;24.70;45.60;;;;;;5029226;28;19921;-60
2022/08/24 00:51:33;;;;;;;;;;;24.70;45.60;;;;;;5027670;28;19938;-61
2022/08/24 00:54:01;;;;;;;;;;;24.70;45.70;;;;;;5028168;28;19921;-60
2022/08/24 00:56:29;;;;;;;;;;;24.70;45.70;;;;;;5027242;28;19940;-61
2022/08/24 00:58:57;;;;;;;;;;;24.70;45.70;;;;;;5021259;28;20024;-60
2022/08/24 01:01:24;;;;;;;;;;;24.70;45.70;;;;;;5025134;28;19929;-60
2022/08/24 01:03:52;;;;;;;;;;;24.70;45.70;;;;;;5028301;28;19960;-61
2022/08/24 01:06:18;;;;;;;;;;;24.70;45.70;;;;;;5028545;28;19933;-60
2022/08/24 01:08:45;;;;;;;;;;;24.70;45.70;;;;;;5024943;28;20048;-60
2022/08/24 01:11:12;;;;;;;;;;;24.70;45.80;;;;;;5028566;28;19921;-60
2022/08/24 01:13:39;;;;;;;;;;;24.70;45.80;;;;;;5025384;28;19948;-60
2022/08/24 01:16:07;;;;;;;;;;;24.70;45.80;;;;;;5028014;28;19990;-60
2022/08/24 01:21:23;;;;;;;;;;;24.70;45.90;;;;;;5031808;28;19937;-60
2022/08/24 01:23:53;;;;;;;;;;;24.70;45.90;;;;;;5023478;28;19930;-60
2022/08/24 01:26:21;;;;;;;;;;;24.70;46.40;;;;;;5025587;28;19922;-60
2022/08/24 01:28:49;;;;;;;;;;;24.70;45.90;;;;;;5026282;28;19940;-60
2022/08/24 01:31:18;;;;;;;;;;;24.70;45.90;;;;;;5042612;28;19988;-60
2022/08/24 01:33:48;;;;;;;;;;;24.70;45.90;;;;;;5026617;28;19975;-60
2022/08/24 01:36:15;;;;;;;;;;;24.70;46.50;;;;;;5028996;28;19925;-60
2022/08/24 01:38:42;;;;;;;;;;;24.70;45.90;;;;;;5026495;28;20008;-59
2022/08/24 01:41:10;;;;;;;;;;;24.70;45.90;;;;;;5025577;28;19921;-60
2022/08/24 01:43:36;;;;;;;;;;;24.70;45.90;;;;;;5022684;28;19931;-60
2022/08/24 01:46:03;;;;;;;;;;;24.60;45.80;;;;;;5027434;28;19925;-60
2022/08/24 01:48:30;;;;;;;;;;;24.70;46.00;;;;;;5028205;28;19960;-60
2022/08/24 01:50:57;;;;;;;;;;;24.60;45.80;;;;;;5029929;28;19956;-60
2022/08/24 01:53:24;;;;;;;;;;;24.60;45.80;;;;;;5030867;28;19974;-60
2022/08/24 01:55:51;;;;;;;;;;;24.60;45.90;;;;;;5031432;28;19921;-60
2022/08/24 01:58:19;;;;;;;;;;;24.70;46.00;;;;;;5026708;28;19921;-60
2022/08/24 02:00:45;;;;;;;;;;;24.70;46.00;;;;;;5030523;28;20318;-60
2022/08/24 02:03:12;;;;;;;;;;;24.60;45.90;;;;;;5028603;28;19920;-60
2022/08/24 02:05:39;;;;;;;;;;;24.70;46.00;;;;;;5030579;28;19967;-60
2022/08/24 02:08:06;;;;;;;;;;;24.60;46.50;;;;;;5026401;28;19925;-60
2022/08/24 02:10:34;;;;;;;;;;;24.70;46.00;;;;;;5028382;28;20262;-60
2022/08/24 02:13:00;;;;;;;;;;;24.60;45.90;;;;;;5023359;28;20076;-60
2022/08/24 02:15:29;;;;;;;;;;;24.60;45.90;;;;;;5023496;28;19940;-60
2022/08/24 02:17:56;;;;;;;;;;;24.60;45.90;;;;;;5029175;28;20036;-60
2022/08/24 02:20:23;;;;;;;;;;;24.60;46.00;;;;;;5021110;28;19921;-60
2022/08/24 02:22:50;;;;;;;;;;;24.60;46.00;;;;;;5030233;28;20020;-60
2022/08/24 02:25:17;;;;;;;;;;;24.60;46.00;;;;;;5031303;28;20019;-60
2022/08/24 02:27:44;;;;;;;;;;;24.60;46.00;;;;;;5027086;28;19983;-60
2022/08/24 02:30:11;;;;;;;;;;;24.60;46.00;;;;;;5032087;28;19929;-60
2022/08/24 02:32:39;;;;;;;;;;;24.60;46.00;;;;;;5031681;28;20027;-60
2022/08/24 02:35:05;;;;;;;;;;;24.60;46.00;;;;;;5030450;28;19921;-61
2022/08/24 02:37:32;;;;;;;;;;;24.60;46.00;;;;;;5026625;28;19921;-60
2022/08/24 02:39:59;;;;;;;;;;;24.60;46.00;;;;;;5031842;28;20016;-60
2022/08/24 02:42:26;;;;;;;;;;;24.60;46.10;;;;;;5026052;28;20270;-60
2022/08/24 02:44:54;;;;;;;;;;;24.60;46.10;;;;;;5023070;28;19955;-60
2022/08/24 02:47:20;;;;;;;;;;;24.60;46.10;;;;;;5028881;28;19933;-60
2022/08/24 02:49:49;;;;;;;;;;;24.60;46.10;;;;;;5026619;28;19930;-60
2022/08/24 02:52:16;;;;;;;;;;;24.60;46.10;;;;;;5026681;28;19975;-60
2022/08/24 02:54:42;;;;;;;;;;;24.60;46.10;;;;;;5027548;28;19925;-60
2022/08/24 02:57:09;;;;;;;;;;;24.60;46.10;;;;;;5029130;28;19931;-60
2022/08/24 02:59:36;;;;;;;;;;;24.60;46.10;;;;;;5055568;28;19921;-60
2022/08/24 03:02:03;;;;;;;;;;;24.60;46.10;;;;;;5026923;28;19921;-60
2022/08/24 03:04:30;;;;;;;;;;;24.60;46.20;;;;;;5029522;28;20340;-60
2022/08/24 03:06:58;;;;;;;;;;;24.60;46.20;;;;;;5029424;28;19928;-60
2022/08/24 03:09:25;;;;;;;;;;;24.60;46.20;;;;;;5023624;28;20024;-60
2022/08/24 03:11:52;;;;;;;;;;;24.60;46.20;;;;;;5031538;28;19925;-60
2022/08/24 03:14:18;;;;;;;;;;;24.60;46.20;;;;;;5027128;28;19929;-60
2022/08/24 03:16:45;;;;;;;;;;;24.60;46.20;;;;;;5021844;28;19976;-60
2022/08/24 03:19:12;;;;;;;;;;;24.60;46.30;;;;;;5025618;28;19925;-60
2022/08/24 03:21:40;;;;;;;;;;;24.60;46.30;;;;;;5042671;28;19925;-60
2022/08/24 03:24:08;;;;;;;;;;;24.50;46.20;;;;;;5027571;28;20031;-60
2022/08/24 03:26:35;;;;;;;;;;;24.60;46.30;;;;;;5028729;28;19929;-60
2022/08/24 03:29:02;;;;;;;;;;;24.60;46.30;;;;;;5026767;28;20014;-60
2022/08/24 03:31:29;;;;;;;;;;;24.60;46.30;;;;;;5027044;28;19992;-61
2022/08/24 03:33:55;;;;;;;;;;;24.60;46.30;;;;;;5027209;28;19921;-60
2022/08/24 03:36:22;;;;;;;;;;;24.50;46.30;;;;;;5029631;28;19921;-60
2022/08/24 03:38:49;;;;;;;;;;;24.50;46.30;;;;;;5027932;28;20011;-60
2022/08/24 03:41:17;;;;;;;;;;;24.60;46.50;;;;;;5029550;28;19921;-60
2022/08/24 03:43:47;;;;;;;;;;;24.50;46.40;;;;;;5027222;28;19928;-60
2022/08/24 03:46:14;;;;;;;;;;;24.50;47.00;;;;;;5028136;28;20020;-60
2022/08/24 03:48:43;;;;;;;;;;;24.50;46.40;;;;;;5026429;28;19944;-61
2022/08/24 03:51:10;;;;;;;;;;;24.60;46.50;;;;;;5028077;28;19936;-60
2022/08/24 03:53:38;;;;;;;;;;;24.50;46.40;;;;;;5027332;28;20278;-60
2022/08/24 03:56:04;;;;;;;;;;;24.50;46.40;;;;;;5029072;28;20026;-60
2022/08/24 03:58:32;;;;;;;;;;;24.50;46.40;;;;;;5026418;28;20013;-60
2022/08/24 04:00:59;;;;;;;;;;;24.60;47.20;;;;;;5027002;28;19936;-60
2022/08/24 04:03:26;;;;;;;;;;;24.50;46.50;;;;;;5020765;28;19921;-60
2022/08/24 04:05:53;;;;;;;;;;;24.50;46.50;;;;;;5028487;28;19952;-60
2022/08/24 04:08:20;;;;;;;;;;;24.50;46.50;;;;;;5021885;28;19921;-60
2022/08/24 04:10:47;;;;;;;;;;;24.50;46.60;;;;;;5023797;28;19943;-60
2022/08/24 04:13:15;;;;;;;;;;;24.50;46.60;;;;;;5026667;28;20016;-61
2022/08/24 04:15:43;;;;;;;;;;;24.50;46.60;;;;;;5028023;28;19929;-60
2022/08/24 04:18:10;;;;;;;;;;;24.50;46.70;;;;;;5025779;28;20023;-61
2022/08/24 04:20:37;;;;;;;;;;;24.50;46.70;;;;;;5026312;28;20286;-60
2022/08/24 04:23:04;;;;;;;;;;;24.50;46.70;;;;;;5026703;28;20384;-60
2022/08/24 04:25:31;;;;;;;;;;;24.50;46.70;;;;;;5028134;28;19960;-60
2022/08/24 04:27:58;;;;;;;;;;;24.50;46.70;;;;;;5028030;28;19925;-60
2022/08/24 04:30:24;;;;;;;;;;;24.50;46.70;;;;;;5027599;28;19921;-60
2022/08/24 04:32:52;;;;;;;;;;;24.50;46.80;;;;;;5027906;28;19968;-60
2022/08/24 04:35:19;;;;;;;;;;;24.50;46.80;;;;;;5026126;28;19931;-60
2022/08/24 04:37:46;;;;;;;;;;;24.50;46.80;;;;;;5027555;28;19928;-60
2022/08/24 04:40:13;;;;;;;;;;;24.50;46.90;;;;;;5027771;28;19971;-60
2022/08/24 04:42:39;;;;;;;;;;;24.50;46.90;;;;;;5029696;28;19929;-60
2022/08/24 04:45:06;;;;;;;;;;;24.50;46.90;;;;;;5026848;28;20020;-60
2022/08/24 04:47:33;;;;;;;;;;;24.50;46.90;;;;;;5026198;28;19921;-60
2022/08/24 04:50:01;;;;;;;;;;;24.50;47.00;;;;;;5026037;28;19928;-60
2022/08/24 04:52:28;;;;;;;;;;;24.50;47.00;;;;;;5021560;28;19928;-60
2022/08/24 04:54:55;;;;;;;;;;;24.50;47.00;;;;;;5041548;28;19965;-60
2022/08/24 04:57:22;;;;;;;;;;;24.50;47.10;;;;;;5025910;28;20043;-60
2022/08/24 04:59:48;;;;;;;;;;;24.50;47.00;;;;;;5019332;28;20010;-60
2022/08/24 05:02:15;;;;;;;;;;;24.50;47.10;;;;;;5027614;28;19921;-60
2022/08/24 05:04:42;;;;;;;;;;;24.50;47.10;;;;;;5025567;28;20032;-60
2022/08/24 05:07:11;;;;;;;;;;;24.50;47.20;;;;;;5031466;28;20011;-60
2022/08/24 05:09:38;;;;;;;;;;;24.50;47.20;;;;;;5026640;28;19925;-60
2022/08/24 05:12:05;;;;;;;;;;;24.50;47.30;;;;;;5026921;28;20011;-60
2022/08/24 05:14:31;;;;;;;;;;;24.50;47.30;;;;;;5028215;28;19921;-60
2022/08/24 05:16:58;;;;;;;;;;;24.50;47.40;;;;;;5026809;28;19967;-60
2022/08/24 05:19:25;;;;;;;;;;;24.40;47.30;;;;;;5025716;28;19921;-60
2022/08/24 05:21:52;;;;;;;;;;;24.50;47.40;;;;;;5028489;28;19956;-60
2022/08/24 05:24:20;;;;;;;;;;;24.50;47.50;;;;;;5030098;28;19925;-60
2022/08/24 05:26:47;;;;;;;;;;;24.50;47.40;;;;;;5029392;28;19921;-60
2022/08/24 05:29:13;;;;;;;;;;;24.50;47.50;;;;;;5030234;28;19967;-60
2022/08/24 05:31:43;;;;;;;;;;;24.50;47.60;;;;;;5031604;28;19925;-60
2022/08/24 05:34:09;;;;;;;;;;;24.50;47.50;;;;;;5027140;28;19928;-60
2022/08/24 05:36:37;;;;;;;;;;;24.50;47.60;;;;;;5033079;28;19995;-60
2022/08/24 05:39:05;;;;;;;;;;;24.50;47.60;;;;;;5027790;28;19921;-60
2022/08/24 05:41:33;;;;;;;;;;;24.50;47.60;;;;;;5031807;28;20263;-60
2022/08/24 05:44:00;;;;;;;;;;;24.50;47.60;;;;;;5025749;28;19986;-60
2022/08/24 05:46:26;;;;;;;;;;;24.50;47.70;;;;;;5030295;28;19928;-59
2022/08/24 05:48:53;;;;;;;;;;;24.50;47.70;;;;;;5028855;28;19968;-60
2022/08/24 05:51:20;;;;;;;;;;;24.50;47.70;;;;;;5030066;28;19925;-60
2022/08/24 05:53:47;;;;;;;;;;;24.50;47.70;;;;;;5030332;28;19921;-60
2022/08/24 05:56:14;;;;;;;;;;;24.50;47.70;;;;;;5028845;28;20015;-60
2022/08/24 05:58:42;;;;;;;;;;;24.50;47.80;;;;;;5028439;28;19979;-60
2022/08/24 06:01:10;;;;;;;;;;;24.50;47.80;;;;;;5031442;28;20392;-60
2022/08/24 06:03:37;;;;;;;;;;;24.50;47.90;;;;;;5030524;28;19933;-60
2022/08/24 06:06:05;;;;;;;;;;;24.50;47.90;;;;;;5023814;28;20366;-61
2022/08/24 06:08:32;;;;;;;;;;;24.50;48.00;;;;;;5024895;28;19925;-60
2022/08/24 06:10:59;;;;;;;;;;;24.50;48.00;;;;;;5025307;28;19921;-60
2022/08/24 06:13:26;;;;;;;;;;;24.50;48.00;;;;;;5027110;28;20016;-60
2022/08/24 06:16:03;;;;;;;;;;;24.50;48.00;;;;;;5029587;28;19927;-59
2022/08/24 06:18:29;;;;;;;;;;;24.50;48.00;;;;;;5026723;28;19921;-60
2022/08/24 06:20:56;;;;;;;;;;;24.50;48.10;;;;;;5057381;28;19921;-60
2022/08/24 06:23:23;;;;;;;;;;;24.50;48.20;;;;;;5029743;28;19925;-61
2022/08/24 06:28:35;;;;;;;;;;;24.50;48.30;;;;;;5027935;28;20396;-60
2022/08/24 06:31:04;;;;;;;;;;;24.50;48.30;;;;;;5053708;28;20148;-60
2022/08/24 06:33:31;;;;;;;;;;;24.50;48.40;;;;;;5040770;28;19965;-60
2022/08/24 06:35:57;;;;;;;;;;;24.50;48.50;;;;;;5028412;28;20012;-60
2022/08/24 06:38:24;;;;;;;;;;;24.50;48.50;;;;;;5020035;28;19975;-60
2022/08/24 06:40:51;;;;;;;;;;;24.50;48.60;;;;;;5024845;28;20302;-60
2022/08/24 06:43:17;;;;;;;;;;;24.50;48.60;;;;;;5037048;28;19921;-60
2022/08/24 06:45:45;;;;;;;;;;;24.50;48.70;;;;;;5029256;28;19943;-61
2022/08/24 06:48:13;;;;;;;;;;;24.50;48.70;;;;;;5029352;28;19964;-60
2022/08/24 06:50:40;;;;;;;;;;;24.50;48.60;;;;;;5030989;28;19921;-61
2022/08/24 06:53:07;;;;;;;;;;;24.50;48.70;;;;;;5018244;28;19921;-60
2022/08/24 06:55:33;;;;;;;;;;;24.50;48.50;;;;;;5023533;28;20018;-60
2022/08/24 06:58:01;;;;;;;;;;;24.50;48.70;;;;;;5028495;28;19925;-60
2022/08/24 07:00:29;;;;;;;;;;;24.50;48.80;;;;;;5023698;28;19922;-60
2022/08/24 07:02:56;;;;;;;;;;;24.50;49.10;;;;;;5053734;28;19992;-60
2022/08/24 07:05:24;;;;;;;;;;;24.50;49.50;;;;;;5026018;28;19961;-61
2022/08/24 07:07:51;;;;;;;;;;;24.50;49.70;;;;;;5027102;28;20033;-60
2022/08/24 07:10:18;;;;;;;;;;;24.50;50.10;;;;;;5024399;28;20015;-60
2022/08/24 07:12:45;;;;;;;;;;;24.50;50.40;;;;;;5023890;28;20024;-61
2022/08/24 07:15:12;;;;;;;;;;;24.40;50.60;;;;;;5041344;28;20039;-60
2022/08/24 07:17:39;;;;;;;;;;;24.50;50.80;;;;;;5028553;28;19987;-60
2022/08/24 07:20:07;;;;;;;;;;;24.40;50.90;;;;;;5059069;28;19922;-59
2022/08/24 07:22:36;;;;;;;;;;;24.40;51.00;;;;;;5025765;28;19972;-60
2022/08/24 07:25:03;;;;;;;;;;;24.40;51.10;;;;;;5026588;28;20012;-60
2022/08/24 07:27:30;;;;;;;;;;;24.40;51.20;;;;;;5026271;28;20426;-61
2022/08/24 07:29:57;;;;;;;;;;;24.30;51.20;;;;;;5025201;28;19925;-61
2022/08/24 07:32:24;;;;;;;;;;;24.30;51.40;;;;;;5029186;28;19925;-60
2022/08/24 07:34:50;;;;;;;;;;;24.30;51.50;;;;;;5025589;28;19925;-61
2022/08/24 07:37:17;;;;;;;;;;;24.40;51.90;;;;;;5045284;28;20027;-61
2022/08/24 07:39:45;;;;;;;;;;;24.30;51.90;;;;;;5027537;28;19925;-61
2022/08/24 07:42:12;;;;;;;;;;;24.30;51.90;;;;;;5058288;28;19921;-60
2022/08/24 07:44:39;;;;;;;;;;;24.30;51.90;;;;;;5025652;28;20035;-60
2022/08/24 07:47:06;;;;;;;;;;;24.30;52.00;;;;;;5028882;28;19925;-61
2022/08/24 07:49:32;;;;;;;;;;;24.30;51.90;;;;;;5026149;28;19964;-60
2022/08/24 07:51:59;;;;;;;;;;;24.30;51.90;;;;;;5028260;28;19932;-60
2022/08/24 07:54:27;;;;;;;;;;;24.30;52.00;;;;;;5026849;28;19921;-60
2022/08/24 07:56:56;;;;;;;;;;;24.30;52.00;;;;;;5027537;28;19940;-60
2022/08/24 07:59:22;;;;;;;;;;;24.30;52.00;;;;;;5027231;28;19925;-61
2022/08/24 08:01:51;;;;;;;;;;;24.30;52.00;;;;;;5028827;28;19933;-60
2022/08/24 08:04:20;;;;;;;;;;;24.30;52.00;;;;;;5026938;28;19921;-60
2022/08/24 08:06:47;;;;;;;;;;;24.30;51.90;;;;;;5028063;28;19921;-61
2022/08/24 08:09:14;;;;;;;;;;;24.30;51.90;;;;;;5026392;28;20011;-60
2022/08/24 08:11:40;;;;;;;;;;;24.30;51.90;;;;;;5025186;28;19926;-60
2022/08/24 08:14:09;;;;;;;;;;;24.30;51.90;;;;;;5027132;28;19935;-61
2022/08/24 08:16:37;;;;;;;;;;;24.30;51.80;;;;;;5024904;28;20010;-61
2022/08/24 08:19:04;;;;;;;;;;;24.30;51.60;;;;;;5027719;28;19921;-60
2022/08/24 08:24:15;;;;;;;;;;;24.40;51.30;;;;;;5023789;28;20016;-61
2022/08/24 08:26:42;;;;;;;;;;;24.40;51.20;;;;;;5024738;28;20135;-60
2022/08/24 08:29:12;;;;;;;;;;;24.40;51.10;;;;;;5053640;28;19934;-59
2022/08/24 08:31:38;;;;;;;;;;;24.40;51.10;;;;;;5023199;28;19968;-60
2022/08/24 08:34:05;;;;;;;;;;;24.40;51.00;;;;;;5026557;28;20024;-60
2022/08/24 08:36:32;;;;;;;;;;;24.40;50.90;;;;;;5028298;28;19964;-59
2022/08/24 08:38:59;;;;;;;;;;;24.40;50.90;;;;;;5026365;28;19964;-61
2022/08/24 08:41:37;;;;;;;;;;;24.50;50.90;;;;;;5027614;28;20267;-61
2022/08/24 08:44:05;;;;;;;;;;;24.50;50.80;;;;;;5024894;28;19925;-61
2022/08/24 08:46:38;;;;;;;;;;;24.50;50.80;;;;;;5060085;28;20018;-61
2022/08/24 08:49:10;;;;;;;;;;;24.50;50.80;;;;;;5025319;28;19924;-61
2022/08/24 08:51:47;;;;;;;;;;;24.50;50.70;;;;;;5027246;28;19932;-60
2022/08/24 08:54:27;;;;;;;;;;;24.50;50.80;;;;;;5024237;28;19933;-61
2022/08/24 08:57:01;;;;;;;;;;;24.60;50.90;;;;;;5026089;28;19970;-61
2022/08/24 08:59:34;;;;;;;;;;;24.60;50.80;;;;;;5020497;28;19929;-61
2022/08/24 09:02:06;;;;;;;;;;;24.60;50.90;;;;;;5023344;28;19953;-61
2022/08/24 09:04:45;;;;;;;;;;;24.60;50.90;;;;;;5025952;28;19921;-61
2022/08/24 09:07:16;;;;;;;;;;;24.60;50.80;;;;;;5023373;28;19921;-60
2022/08/24 09:09:51;;;;;;;;;;;24.60;50.70;;;;;;5007951;28;20296;-61
2022/08/24 09:12:19;;;;;;;;;;;24.60;50.70;;;;;;5026685;28;19967;-61
2022/08/24 09:15:00;;;;;;;;;;;24.60;50.80;;;;;;5025060;28;19921;-61
2022/08/24 09:17:32;;;;;;;;;;;24.60;50.80;;;;;;5028736;28;19968;-61
2022/08/24 09:20:07;;;;;;;;;;;24.60;50.70;;;;;;5026132;28;19967;-60
2022/08/24 09:22:35;;;;;;;;;;;24.60;50.60;;;;;;5024901;28;19925;-60
2022/08/24 09:25:04;;;;;;;;;;;24.70;50.80;;;;;;5023650;28;19975;-60
2022/08/24 09:27:34;;;;;;;;;;;24.70;50.70;;;;;;5027831;28;19925;-59
2022/08/24 09:30:04;;;;;;;;;;;24.70;50.80;;;;;;5022776;28;19921;-61
2022/08/24 09:32:36;;;;;;;;;;;24.70;50.80;;;;;;5025311;28;19932;-61
2022/08/24 09:35:03;;;;;;;;;;;24.70;50.70;;;;;;5028505;28;19928;-60
2022/08/24 09:37:31;;;;;;;;;;;24.70;50.70;;;;;;5022576;28;19929;-60
2022/08/24 09:40:04;;;;;;;;;;;24.70;50.70;;;;;;5025528;28;20035;-60
2022/08/24 09:42:50;;;;;;;;;;;24.70;50.70;;;;;;5054778;28;19921;-60
2022/08/24 09:45:37;;;;;;;;;;;24.80;50.90;;;;;;5026313;28;19921;-61
2022/08/24 09:48:13;;;;;;;;;;;24.80;50.80;;;;;;5026153;28;19968;-61
2022/08/24 09:50:46;;;;;;;;;;;24.80;50.80;;;;;;5024473;28;19987;-62
2022/08/24 09:53:32;;;;;;;;;;;24.80;50.90;;;;;;5028368;28;19964;-63
2022/08/24 09:56:10;;;;;;;;;;;24.80;50.90;;;;;;5022910;28;19933;-65
2022/08/24 09:58:44;;;;;;;;;;;24.80;50.90;;;;;;5026446;28;19933;-64
2022/08/24 10:01:13;;;;;;;;;;;24.80;50.90;;;;;;5024733;28;19921;-64
2022/08/24 10:03:51;;;;;;;;;;;24.80;50.90;;;;;;5040403;28;19933;-63
2022/08/24 10:06:22;;;;;;;;;;;24.90;51.00;;;;;;5026942;28;19933;-64
2022/08/24 10:08:55;;;;;;;;;;;24.90;51.00;;;;;;5024202;28;19963;-62
2022/08/24 10:11:23;;;;;;;;;;;24.90;50.90;;;;;;5032002;28;19934;-63
2022/08/24 10:13:52;;;;;;;;;;;24.90;50.90;;;;;;5027166;28;19921;-62
2022/08/24 10:16:26;;;;;;;;;;;24.90;51.00;;;;;;5030991;28;20015;-65
2022/08/24 10:18:58;;;;;;;;;;;24.90;50.90;;;;;;5024033;28;19975;-62
2022/08/24 10:21:30;;;;;;;;;;;24.90;51.00;;;;;;5024549;28;19937;-62
2022/08/24 10:24:01;;;;;;;;;;;24.90;51.00;;;;;;5026262;28;19927;-63
2022/08/24 10:26:31;;;;;;;;;;;24.90;51.60;;;;;;5025024;28;19921;-63
2022/08/24 10:29:03;;;;;;;;;;;24.90;51.00;;;;;;5028267;28;20384;-63
2022/08/24 10:31:31;;;;;;;;;;;25.00;51.10;;;;;;5027789;28;19927;-62
2022/08/24 10:34:02;;;;;;;;;;;24.90;51.00;;;;;;5028534;28;19929;-62
2022/08/24 10:36:42;;;;;;;;;;;25.00;51.10;;;;;;5029972;28;19921;-62
2022/08/24 10:43:32;;;;;;;;;;;25.00;51.10;;;;;;5029558;28;19960;-65
2022/08/24 10:45:07;;;;;;;;;;;25.00;51.10;;;;;;5007173;28;20011;-64
2022/08/24 10:47:35;;;;;;;;;;;25.00;51.00;;;;;;5027182;28;19940;-63
2022/08/24 10:50:17;;;;;;;;;;;25.00;51.10;;;;;;5023508;28;19925;-64
2022/08/24 10:52:51;;;;;;;;;;;25.00;51.10;;;;;;5026915;28;19933;-63
2022/08/24 10:55:19;;;;;;;;;;;25.00;51.00;;;;;;5028380;28;19921;-63
2022/08/24 10:57:48;;;;;;;;;;;25.00;51.00;;;;;;5029240;28;19935;-64
2022/08/24 11:00:17;;;;;;;;;;;25.00;51.00;;;;;;5024766;28;20209;-62
2022/08/24 11:02:44;;;;;;;;;;;25.00;51.00;;;;;;5028729;28;19955;-62
2022/08/24 11:05:11;;;;;;;;;;;25.10;51.00;;;;;;5029468;28;19994;-63
2022/08/24 11:07:55;;;;;;;;;;;25.00;51.00;;;;;;5025703;28;19921;-64
2022/08/24 11:10:25;;;;;;;;;;;25.00;50.90;;;;;;5029584;28;20042;-65
2022/08/24 11:12:51;;;;;;;;;;;25.00;50.90;;;;;;5031373;28;19921;-64
2022/08/24 11:15:19;;;;;;;;;;;25.00;50.90;;;;;;5028719;28;19921;-64
2022/08/24 11:17:52;;;;;;;;;;;25.00;50.80;;;;;;5029164;28;19921;-64
2022/08/24 11:20:24;;;;;;;;;;;25.10;50.90;;;;;;5025688;28;19964;-64
2022/08/24 11:22:56;;;;;;;;;;;25.10;50.90;;;;;;5012182;28;19921;-64
2022/08/24 11:25:26;;;;;;;;;;;25.00;50.80;;;;;;5027313;28;20436;-64
2022/08/24 11:27:58;;;;;;;;;;;25.10;50.80;;;;;;5027775;28;19933;-63
2022/08/24 11:30:25;;;;;;;;;;;25.10;50.80;;;;;;5026656;28;20067;-64
2022/08/24 11:32:52;;;;;;;;;;;25.10;50.80;;;;;;5026128;28;19921;-64
2022/08/24 11:35:22;;;;;;;;;;;25.10;50.80;;;;;;5027841;28;19921;-63
2022/08/24 11:37:49;;;;;;;;;;;25.10;50.80;;;;;;5019745;28;19988;-61
2022/08/24 11:40:16;;;;;;;;;;;25.10;51.30;;;;;;5023506;28;19931;-64
2022/08/24 11:42:51;;;;;;;;;;;25.10;50.70;;;;;;5029829;28;19967;-63
2022/08/24 11:45:19;;;;;;;;;;;25.10;50.70;;;;;;5016218;28;20044;-62
2022/08/24 11:47:55;;;;;;;;;;;25.10;50.70;;;;;;5031628;28;20011;-64
2022/08/24 11:50:28;;;;;;;;;;;25.10;50.70;;;;;;5061658;28;19925;-68
2022/08/24 11:53:00;;;;;;;;;;;25.10;50.70;;;;;;5018702;28;20007;-64
2022/08/24 11:55:30;;;;;;;;;;;25.10;50.70;;;;;;5022989;28;19983;-62
2022/08/24 11:58:01;;;;;;;;;;;25.10;50.70;;;;;;5027901;28;20015;-61
2022/08/24 12:00:29;;;;;;;;;;;25.10;50.70;;;;;;5029134;28;19925;-62
2022/08/24 12:02:59;;;;;;;;;;;25.10;50.70;;;;;;5025414;28;20309;-66
2022/08/24 12:05:26;;;;;;;;;;;25.10;50.70;;;;;;5027409;28;19939;-63
2022/08/24 12:07:56;;;;;;;;;;;25.10;51.20;;;;;;5025730;28;19925;-62
2022/08/24 12:10:26;;;;;;;;;;;25.10;50.60;;;;;;5028328;28;19921;-62
2022/08/24 12:12:54;;;;;;;;;;;25.20;50.70;;;;;;5028521;28;19921;-63
2022/08/24 12:15:25;;;;;;;;;;;25.10;50.60;;;;;;5025704;28;19928;-61
2022/08/24 12:17:52;;;;;;;;;;;25.10;50.70;;;;;;5023174;28;19922;-60
2022/08/24 12:20:22;;;;;;;;;;;25.10;50.70;;;;;;5025365;28;20000;-60
2022/08/24 12:22:48;;;;;;;;;;;25.20;50.80;;;;;;5027516;28;19921;-60
2022/08/24 12:28:02;;;;;;;;;;;25.20;50.80;;;;;;5026510;28;19937;-61
2022/08/24 12:30:30;;;;;;;;;;;25.20;50.80;;;;;;5023592;28;20340;-61
2022/08/24 12:32:57;;;;;;;;;;;25.20;50.70;;;;;;5027950;28;19921;-60
2022/08/24 12:35:26;;;;;;;;;;;25.20;50.70;;;;;;5028818;28;20355;-60
2022/08/24 12:37:53;;;;;;;;;;;25.20;50.70;;;;;;5028139;28;19971;-59
2022/08/24 12:40:22;;;;;;;;;;;25.20;50.70;;;;;;5026049;28;20015;-60
2022/08/24 12:42:49;;;;;;;;;;;25.20;50.70;;;;;;5026234;28;20012;-60
2022/08/24 12:45:17;;;;;;;;;;;25.20;50.60;;;;;;5027416;28;19921;-61
2022/08/24 12:47:47;;;;;;;;;;;25.20;50.60;;;;;;5025786;28;19925;-62
2022/08/24 12:50:16;;;;;;;;;;;25.20;50.60;;;;;;5026283;28;23064;-59
2022/08/24 12:53:01;;;;;;;;;;;25.20;50.60;;;;;;5027520;28;19933;-59
2022/08/24 12:55:35;;;;;;;;;;;25.20;50.60;;;;;;5055871;28;20293;-60
2022/08/24 12:58:05;;;;;;;;;;;25.20;50.50;;;;;;5026350;28;19979;-60
2022/08/24 13:00:32;;;;;;;;;;;25.20;50.60;;;;;;5020811;28;19939;-59
2022/08/24 13:03:01;;;;;;;;;;;25.20;50.50;;;;;;5027533;28;19925;-59
2022/08/24 13:05:37;;;;;;;;;;;25.20;50.50;;;;;;5024820;28;19966;-60
2022/08/24 13:08:08;;;;;;;;;;;25.20;50.50;;;;;;5024036;28;19928;-60
2022/08/24 13:10:38;;;;;;;;;;;25.20;50.50;;;;;;5022565;28;19921;-60
2022/08/24 13:13:09;;;;;;;;;;;25.30;50.50;;;;;;5025502;28;19925;-61
2022/08/24 13:15:55;;;;;;;;;;;25.20;50.50;;;;;;5024164;28;20024;-60
2022/08/24 13:18:49;;;;;;;;;;;25.20;50.40;;;;;;5024701;28;20012;-60
2022/08/24 13:21:33;;;;;;;;;;;25.20;50.40;;;;;;5022432;28;19932;-59
2022/08/24 13:24:19;;;;;;;;;;;25.20;50.50;;;;;;5057879;28;19925;-59
2022/08/24 13:26:45;;;;;;;;;;;25.20;50.50;;;;;;5022759;28;19921;-60
2022/08/24 13:29:14;;;;;;;;;;;25.30;50.50;;;;;;5026999;28;19925;-59
2022/08/24 13:31:42;;;;;;;;;;;25.30;50.50;;;;;;5023474;28;20023;-59
2022/08/24 13:34:27;;;;;;;;;;;25.30;50.50;;;;;;5028010;28;19925;-60
2022/08/24 13:37:02;;;;;;;;;;;25.30;50.50;;;;;;5014417;28;19943;-60
2022/08/24 13:39:41;;;;;;;;;;;25.30;50.40;;;;;;5025957;28;19932;-60
2022/08/24 13:42:13;;;;;;;;;;;25.30;50.40;;;;;;5023009;28;19967;-60
2022/08/24 13:44:59;;;;;;;;;;;25.30;50.40;;;;;;5030827;28;19960;-60
2022/08/24 13:47:27;;;;;;;;;;;25.30;50.40;;;;;;5031377;28;19921;-60
2022/08/24 13:50:00;;;;;;;;;;;25.30;50.40;;;;;;5030351;28;20393;-60
2022/08/24 13:52:31;;;;;;;;;;;25.30;50.30;;;;;;5027800;28;20426;-60
2022/08/24 13:55:05;;;;;;;;;;;25.30;50.30;;;;;;5030580;28;19929;-60
2022/08/24 13:57:34;;;;;;;;;;;25.30;50.30;;;;;;5030154;28;19937;-59
2022/08/24 14:00:11;;;;;;;;;;;25.30;50.30;;;;;;5028480;28;19933;-59
2022/08/24 14:02:40;;;;;;;;;;;25.30;50.30;;;;;;5029727;28;20038;-60
2022/08/24 14:05:09;;;;;;;;;;;25.30;50.20;;;;;;5028789;28;20020;-60
2022/08/24 14:07:47;;;;;;;;;;;25.30;50.20;;;;;;5030331;28;19921;-59
2022/08/24 14:10:14;;;;;;;;;;;25.30;50.20;;;;;;5027455;28;19932;-60
2022/08/24 14:12:44;;;;;;;;;;;25.30;50.70;;;;;;5044577;28;19921;-60
2022/08/24 14:15:14;;;;;;;;;;;25.30;50.10;;;;;;5030147;28;19937;-59
2022/08/24 14:17:51;;;;;;;;;;;25.30;50.70;;;;;;5028059;28;20349;-61
2022/08/24 14:20:36;;;;;;;;;;;25.30;50.10;;;;;;5031096;28;19944;-60
2022/08/24 14:23:06;;;;;;;;;;;25.30;50.10;;;;;;5042269;28;19930;-59
2022/08/24 14:25:33;;;;;;;;;;;25.30;50.00;;;;;;5058121;28;19940;-61
2022/08/24 14:28:19;;;;;;;;;;;25.30;50.00;;;;;;5021471;28;19925;-60
2022/08/24 14:30:46;;;;;;;;;;;25.30;50.00;;;;;;5027249;28;20367;-60
2022/08/24 14:33:24;;;;;;;;;;;25.30;50.00;;;;;;5057586;28;19933;-60
2022/08/24 14:36:06;;;;;;;;;;;25.30;50.00;;;;;;5055550;28;20293;-58
2022/08/24 14:38:38;;;;;;;;;;;25.30;49.90;;;;;;5026154;28;19927;-58
2022/08/24 14:41:10;;;;;;;;;;;25.30;49.90;;;;;;5027814;28;19927;-60
2022/08/24 14:43:44;;;;;;;;;;;25.30;49.90;;;;;;5027542;28;19936;-60